Terminal Aerodrome Forecast
Issued by NWS

Home | Current Version | Previous Version | Text Only | Print | Product List | Glossary Off
Versions: 1 2 3 4 5 6 7 8 9 10 11 12 13 14 15 16 17

000
FTUS43 KGRB 031137
TAFCWA
TAF
KCWA 031137Z 0312/0412 VRB03KT P6SM SCT003 BKN015
      TEMPO 0312/0315 3SM BR BKN003
     FM031500 12005KT P6SM BKN010
     FM031800 12005KT P6SM VCSH SCT010 BKN040
     FM032100 11005KT P6SM SCT040 SCT100
     FM040600 VRB02KT 3SM BR SCT004
      TEMPO 0408/0412 1SM BR BKN004=

USA.gov is the U.S. government's official web portal to all federal, state and local government web resources and services.